Impacts TAF Board
For situational awareness. Not to be used for flight planning purposes.
IDs:

KMSP - Minneapolis-St Paul, MN, US

Issued at 2327 UTC 23 May 2019
Updated at 0129 UTC 24 May 2019
Potential Impact None Slight Moderate High
Time0053Z 24/02Z 24/03Z 24/04Z 24/05Z 24/06Z 24/07Z 24/08Z 24/09Z 24/10Z 24/11Z 24/12Z 24/13Z 24/14Z>>
Type OBS PRVL PRVL PRVL PRVL PRVL PRVL PRVL PRVL PRVL PRVL PRVL PRVL PRVL
VIS 10 >6 >6 >6 >6 >6 >6 >6 >6 >6 >6 6 6 6
CIG 43 40 40 40 40 40 90 90 90 90 90 25 25 25
Cover OVC BKN BKN BKN BKN BKN BKN BKN BKN BKN BKN OVC OVC OVC
FltCat VFR VFR VFR VFR VFR VFR VFR VFR VFR VFR VFR MVFR MVFR MVFR
WX -- -- -- -- -- -- VCSH VCSH VCSH VCSH VCSH -SHRA BR -SHRA BR -SHRA BR
WDir 280 310 310 310 310 310 90 90 90 90 90 100 100 100
WSpd 6 9 9 9 9 9 6 6 6 6 6 8 8 8
WGst -- -- -- -- -- -- -- -- -- -- -- -- -- --
Raw TAF
KMSP 232327Z 2400/2506 31009KT P6SM SCT030 BKN040
  FM240700 09006KT P6SM VCSH SCT040 BKN090
  FM241200 10008KT 6SM -SHRA BR BKN025 OVC040
  FM241500 11012G20KT 6SM -SHRA BR SCT008 OVC012
  FM241900 15013G23KT P6SM SCT010 OVC015
  FM250000 18011KT P6SM SCT015 BKN035


Raw METAR
KMSP 240053Z 28006KT 10SM OVC043 14/08 A3011 RMK AO2 SLP198 T01390078
KMSP 232353Z 27010KT 10SM OVC041 14/07 A3013 RMK AO2 SLP205 T01390072 10156 20139 53010
KMSP 232253Z 29009KT 10SM FEW032 OVC041 14/08 A3011 RMK AO2 SLP198 T01440078

METAR Board
Radar Display
Forecast Discussion
For situational awareness. Not to be used for flight planning purposes.